Boone, Iowa
Current Conditions -  °F | °C
As of 6:15 AM on Tuesday 27 Jan 2015 (Local Time) from KBNW Reporting Station
Clear Clear  
Wind Chill: 23°   Ceiling: Unl
Heat Index: 30°   Visibility: 10mi
Dew Point: 30°   Wind: 7mph
Humidity: 100%   Direction: 360°N
Pressure: 30.07"   Gusts: NA
Location:  42.06°N, 93.9°W
Report Text: KBNW 271215Z AUTO 36006KT 10SM CLR M01/M01 A3007 RMK AO2
Loading
Personal Weather Stations






























Interactive Weather Map New forecast layout! Learn more

10-Day Weather Forecast

Advertisements
Track Severe Weather on mobile